Time;durP1;ratioP1;P1;durP2;ratioP2;P2;SDS_P1;SDS_P2;PMS_P1;PMS_P2;Temp;Humidity;BMP_temperature;BMP_pressure;BME280_temperature;BME280_humidity;BME280_pressure;Samples;Min_cycle;Max_cycle;Signal;HPM_P1;HPM_P2
2022/10/15 00:01:39;;;;;;;2.00;1.67;;;15.00;99.90;;;;;;4975967;28;20261;-72
2022/10/15 00:04:05;;;;;;;1.87;1.40;;;15.00;99.90;;;;;;4975764;28;20220;-72
2022/10/15 00:06:31;;;;;;;1.97;1.60;;;15.00;99.90;;;;;;4975951;28;20184;-73
2022/10/15 00:08:56;;;;;;;2.57;1.80;;;15.00;99.90;;;;;;4975773;28;20191;-75
2022/10/15 00:11:25;;;;;;;2.33;1.93;;;15.00;99.90;;;;;;4975706;28;20441;-74
2022/10/15 00:13:56;;;;;;;2.97;2.27;;;15.10;99.90;;;;;;4976490;28;20176;-75
2022/10/15 00:16:24;;;;;;;2.60;1.90;;;15.10;99.90;;;;;;4978343;28;20417;-75
2022/10/15 00:18:50;;;;;;;4.23;1.83;;;15.10;99.90;;;;;;4992783;28;20485;-74
2022/10/15 00:21:19;;;;;;;4.40;2.23;;;15.10;99.90;;;;;;4997158;28;20424;-75
2022/10/15 00:23:46;;;;;;;7.80;2.40;;;15.10;99.90;;;;;;4996215;28;20436;-71
2022/10/15 00:26:20;;;;;;;3.30;1.93;;;15.10;99.90;;;;;;4984353;28;20425;-73
2022/10/15 00:28:48;;;;;;;2.27;1.90;;;15.10;99.90;;;;;;4975365;28;20567;-72
2022/10/15 00:31:16;;;;;;;3.00;2.00;;;15.20;99.90;;;;;;4975440;28;21045;-72
2022/10/15 00:33:41;;;;;;;2.40;2.03;;;15.20;99.90;;;;;;4975144;28;20424;-73
2022/10/15 00:36:12;;;;;;;2.23;1.50;;;15.20;99.90;;;;;;4984032;28;20424;-73
2022/10/15 00:38:38;;;;;;;2.20;1.40;;;15.20;99.90;;;;;;4994584;28;20279;-73
2022/10/15 00:41:06;;;;;;;2.77;1.90;;;15.10;99.90;;;;;;4994603;28;20423;-73
2022/10/15 00:43:43;;;;;;;2.07;1.80;;;15.10;99.90;;;;;;4994525;28;20931;-75
2022/10/15 00:46:19;;;;;;;2.63;2.00;;;15.10;99.90;;;;;;4993698;28;20430;-72
2022/10/15 00:48:48;;;;;;;2.10;1.40;;;15.00;99.90;;;;;;4994239;28;20454;-72
2022/10/15 00:51:16;;;;;;;1.97;1.43;;;14.90;99.90;;;;;;4994613;28;20400;-74
2022/10/15 00:53:42;;;;;;;1.87;1.37;;;14.80;99.90;;;;;;4994540;28;20404;-73
2022/10/15 00:56:07;;;;;;;2.23;1.50;;;14.60;99.90;;;;;;4981198;28;20436;-73
2022/10/15 00:58:34;;;;;;;1.77;1.33;;;14.50;99.90;;;;;;4974082;28;20853;-74
2022/10/15 01:01:00;;;;;;;2.07;1.53;;;14.50;99.90;;;;;;5008345;28;20730;-74
2022/10/15 01:03:26;;;;;;;2.60;1.70;;;14.40;99.90;;;;;;4973589;28;20496;-73
2022/10/15 01:05:52;;;;;;;3.30;2.30;;;14.30;99.90;;;;;;4974490;28;20174;-72
2022/10/15 01:08:18;;;;;;;2.10;1.43;;;14.30;99.90;;;;;;4988663;28;20448;-73
2022/10/15 01:11:03;;;;;;;2.23;1.83;;;14.20;99.90;;;;;;4994184;28;20404;-72
2022/10/15 01:13:37;;;;;;;1.87;1.40;;;14.20;99.90;;;;;;4994062;28;20737;-72
2022/10/15 01:16:23;;;;;;;2.33;1.80;;;14.10;99.90;;;;;;4989395;28;20417;-72
2022/10/15 01:19:00;;;;;;;1.67;1.57;;;14.00;99.90;;;;;;4974429;28;20787;-71
2022/10/15 01:21:55;;;;;;;1.93;1.50;;;14.00;99.90;;;;;;4991602;28;20839;-74
2022/10/15 01:24:36;;;;;;;3.23;2.10;;;13.90;99.90;;;;;;4976790;28;20405;-74
2022/10/15 01:27:27;;;;;;;3.30;2.97;;;13.90;99.90;;;;;;4986034;28;20917;-73
2022/10/15 01:30:19;;;;;;;2.90;2.20;;;13.80;99.90;;;;;;4993693;28;20436;-72
2022/10/15 01:33:09;;;;;;;2.70;2.30;;;13.70;99.90;;;;;;4996080;28;20407;-75
2022/10/15 01:35:50;;;;;;;2.40;1.63;;;13.70;99.90;;;;;;4997151;28;20436;-74
2022/10/15 01:38:33;;;;;;;3.40;2.97;;;13.60;99.90;;;;;;4992911;28;20498;-72
2022/10/15 01:41:03;;;;;;;3.10;2.60;;;13.60;99.90;;;;;;4993547;28;20408;-72
2022/10/15 01:43:57;;;;;;;2.73;2.13;;;13.60;99.90;;;;;;4993477;28;20870;-72
2022/10/15 01:46:41;;;;;;;2.87;2.57;;;13.60;99.90;;;;;;4998046;28;20755;-73
2022/10/15 01:49:10;;;;;;;2.80;2.37;;;13.60;99.90;;;;;;4978703;28;20453;-74
2022/10/15 01:51:39;;;;;;;2.70;2.43;;;13.60;99.90;;;;;;5005370;28;20779;-73
2022/10/15 01:54:08;;;;;;;9.23;2.90;;;13.70;99.90;;;;;;4973800;28;20440;-73
2022/10/15 01:56:36;;;;;;;4.40;3.27;;;13.80;99.90;;;;;;4973780;28;20537;-73
2022/10/15 01:59:03;;;;;;;4.03;3.60;;;13.80;99.90;;;;;;4986048;28;20464;-73
2022/10/15 02:01:29;;;;;;;3.90;3.30;;;13.90;99.90;;;;;;4991985;28;20416;-73
2022/10/15 02:03:54;;;;;;;5.40;3.23;;;13.90;99.90;;;;;;4993189;28;20415;-73
2022/10/15 02:06:35;;;;;;;2.70;2.40;;;14.00;99.90;;;;;;4992852;28;20165;-73
2022/10/15 02:09:15;;;;;;;3.13;2.80;;;14.00;99.90;;;;;;4980365;28;20204;-72
2022/10/15 02:12:11;;;;;;;3.83;2.93;;;14.10;99.90;;;;;;4973633;28;20779;-73
2022/10/15 02:15:04;;;;;;;3.27;2.80;;;14.10;99.90;;;;;;4973343;28;20903;-73
2022/10/15 02:17:42;;;;;;;2.67;2.40;;;14.10;99.90;;;;;;4990901;28;20440;-75
2022/10/15 02:20:18;;;;;;;4.80;2.90;;;14.10;99.90;;;;;;4976036;28;20456;-73
2022/10/15 02:22:49;;;;;;;2.37;2.17;;;14.10;99.90;;;;;;4973453;28;20401;-72
2022/10/15 02:25:22;;;;;;;3.57;2.87;;;14.10;99.90;;;;;;4973159;28;20401;-75
2022/10/15 02:27:50;;;;;;;4.43;2.60;;;14.20;99.90;;;;;;4974353;28;20429;-73
2022/10/15 02:30:16;;;;;;;4.47;2.73;;;14.20;99.90;;;;;;4973502;28;20420;-72
2022/10/15 02:32:44;;;;;;;3.10;2.70;;;14.30;99.90;;;;;;4973322;28;20401;-72
2022/10/15 02:35:10;;;;;;;3.77;2.70;;;14.40;99.90;;;;;;4973061;28;20494;-72
2022/10/15 02:37:41;;;;;;;3.00;2.70;;;14.40;99.90;;;;;;4973134;28;20436;-72
2022/10/15 02:40:07;;;;;;;3.40;2.63;;;14.40;99.90;;;;;;4992592;28;20495;-72
2022/10/15 02:42:33;;;;;;;3.57;3.10;;;14.40;99.90;;;;;;4994228;28;20498;-73
2022/10/15 02:44:58;;;;;;;2.97;2.20;;;14.50;99.90;;;;;;4993383;28;21002;-74
2022/10/15 02:47:24;;;;;;;3.50;2.70;;;14.50;99.90;;;;;;4992553;28;20678;-72
2022/10/15 02:49:49;;;;;;;2.87;2.47;;;14.50;99.90;;;;;;4974656;28;20193;-73
2022/10/15 02:52:15;;;;;;;4.30;3.70;;;14.50;99.90;;;;;;4973076;28;20651;-73
2022/10/15 02:54:40;;;;;;;5.00;2.80;;;14.50;99.90;;;;;;4972893;28;20178;-74
2022/10/15 02:57:06;;;;;;;2.93;2.50;;;14.50;99.90;;;;;;4973146;28;20189;-72
2022/10/15 02:59:31;;;;;;;3.10;2.47;;;14.50;99.90;;;;;;4974095;28;20197;-72
2022/10/15 03:01:57;;;;;;;5.57;3.13;;;14.50;99.90;;;;;;4976996;28;20161;-72
2022/10/15 03:04:22;;;;;;;3.33;2.50;;;14.50;99.90;;;;;;4976727;28;20170;-72
2022/10/15 03:06:48;;;;;;;4.30;3.50;;;14.50;99.90;;;;;;4991844;28;20686;-72
2022/10/15 03:09:13;;;;;;;4.37;2.70;;;14.50;99.90;;;;;;4989165;28;20173;-73
2022/10/15 03:11:39;;;;;;;6.90;3.27;;;14.50;99.90;;;;;;4995092;28;20177;-73
2022/10/15 03:14:04;;;;;;;5.77;3.33;;;14.50;99.90;;;;;;4995718;28;20513;-73
2022/10/15 03:16:30;;;;;;;3.67;3.10;;;14.60;99.90;;;;;;4996989;28;20177;-74
2022/10/15 03:18:56;;;;;;;3.20;2.83;;;14.60;99.90;;;;;;4987799;28;20208;-75
2022/10/15 03:21:21;;;;;;;3.60;2.90;;;14.60;99.90;;;;;;4978544;28;20169;-74
2022/10/15 03:23:47;;;;;;;2.77;2.47;;;14.60;99.90;;;;;;4977121;28;20903;-72
2022/10/15 03:26:12;;;;;;;3.13;2.77;;;14.60;99.90;;;;;;4978260;28;20166;-74
2022/10/15 03:28:38;;;;;;;3.20;2.90;;;14.60;99.90;;;;;;4995935;28;20232;-72
2022/10/15 03:31:03;;;;;;;5.00;3.60;;;14.60;99.90;;;;;;4996153;28;20199;-71
2022/10/15 03:33:29;;;;;;;3.50;2.90;;;14.70;99.90;;;;;;4995977;28;20566;-73
2022/10/15 03:35:56;;;;;;;3.80;3.40;;;14.60;99.90;;;;;;4995569;28;20169;-74
2022/10/15 03:38:22;;;;;;;8.10;3.03;;;14.70;99.90;;;;;;4995356;28;20192;-72
2022/10/15 03:40:47;;;;;;;6.23;2.90;;;14.60;99.90;;;;;;4994434;28;20980;-73
2022/10/15 03:43:13;;;;;;;2.67;2.47;;;14.60;99.90;;;;;;4994560;28;20407;-76
2022/10/15 03:45:38;;;;;;;3.87;2.87;;;14.60;99.90;;;;;;4996198;28;20165;-75
2022/10/15 03:48:04;;;;;;;3.23;2.33;;;14.60;99.90;;;;;;4981030;28;20197;-74
2022/10/15 03:50:30;;;;;;;4.90;3.00;;;14.60;99.90;;;;;;4977781;28;20185;-74
2022/10/15 03:52:55;;;;;;;3.23;2.67;;;14.60;99.90;;;;;;4977149;28;20464;-73
2022/10/15 03:55:21;;;;;;;2.93;2.47;;;14.60;99.90;;;;;;4975943;28;20264;-74
2022/10/15 03:57:46;;;;;;;4.07;3.30;;;14.60;99.90;;;;;;4989623;28;20201;-73
2022/10/15 04:00:13;;;;;;;2.93;2.60;;;14.60;99.90;;;;;;4995397;28;20276;-73
2022/10/15 04:02:38;;;;;;;5.20;4.37;;;14.60;99.90;;;;;;4996096;28;20165;-75
2022/10/15 04:05:04;;;;;;;6.10;3.30;;;14.60;99.90;;;;;;4996961;28;20412;-74
2022/10/15 04:07:30;;;;;;;3.93;2.97;;;14.60;99.90;;;;;;4985649;28;20193;-74
2022/10/15 04:09:55;;;;;;;4.00;3.07;;;14.60;99.90;;;;;;4977141;28;20228;-73
2022/10/15 04:12:21;;;;;;;5.23;3.73;;;14.60;99.90;;;;;;5008461;28;20264;-75
2022/10/15 04:14:47;;;;;;;6.43;4.10;;;14.60;99.90;;;;;;4977297;28;20635;-75
2022/10/15 04:17:12;;;;;;;8.43;4.70;;;14.60;99.90;;;;;;4986200;28;20197;-76
2022/10/15 04:19:38;;;;;;;6.10;4.13;;;14.60;99.90;;;;;;4996825;28;20247;-73
2022/10/15 04:22:03;;;;;;;3.97;3.40;;;14.60;99.90;;;;;;4996930;28;20165;-75
2022/10/15 04:24:29;;;;;;;7.10;3.37;;;14.60;99.90;;;;;;4995300;28;20169;-73
2022/10/15 04:26:54;;;;;;;4.70;3.10;;;14.60;99.90;;;;;;4989219;28;20220;-75
2022/10/15 04:29:20;;;;;;;15.50;4.53;;;14.60;99.90;;;;;;4991578;28;20310;-73
2022/10/15 04:31:45;;;;;;;4.50;3.40;;;14.50;99.90;;;;;;4991465;28;20166;-74
2022/10/15 04:34:11;;;;;;;4.23;3.43;;;14.50;99.90;;;;;;4975917;28;20201;-72
2022/10/15 04:36:36;;;;;;;6.20;4.10;;;14.40;99.90;;;;;;4981622;28;20606;-73
2022/10/15 04:39:03;;;;;;;5.03;3.80;;;14.30;99.90;;;;;;4995818;28;20201;-72
2022/10/15 04:41:29;;;;;;;9.23;3.30;;;14.30;99.90;;;;;;4994806;28;20165;-73
2022/10/15 04:43:56;;;;;;;4.43;3.10;;;14.20;99.90;;;;;;4994785;28;20409;-75
2022/10/15 04:46:21;;;;;;;6.37;3.63;;;14.20;99.90;;;;;;4992130;28;20503;-74
2022/10/15 04:48:47;;;;;;;5.23;3.20;;;14.20;99.90;;;;;;4975401;28;20480;-73
2022/10/15 04:51:16;;;;;;;4.43;3.50;;;14.10;99.90;;;;;;4973995;28;20177;-73
2022/10/15 04:53:42;;;;;;;5.27;3.73;;;14.10;99.90;;;;;;4976025;28;20162;-71
2022/10/15 04:56:16;;;;;;;8.00;4.00;;;14.10;99.90;;;;;;4978469;28;20428;-73
2022/10/15 04:58:43;;;;;;;7.00;3.77;;;14.10;99.90;;;;;;4974954;28;20499;-73
2022/10/15 05:01:12;;;;;;;4.63;3.30;;;14.10;99.90;;;;;;4975501;28;20429;-72
2022/10/15 05:03:38;;;;;;;8.27;5.03;;;14.10;99.90;;;;;;4974783;28;20432;-73
2022/10/15 05:06:10;;;;;;;9.63;4.83;;;14.10;99.90;;;;;;4978015;28;20420;-72
2022/10/15 05:08:37;;;;;;;6.73;4.50;;;14.20;99.90;;;;;;4994135;28;20428;-74
2022/10/15 05:11:08;;;;;;;5.80;4.70;;;14.20;99.90;;;;;;4994179;28;20409;-73
2022/10/15 05:13:35;;;;;;;9.27;5.07;;;14.20;99.90;;;;;;4992784;28;20450;-74
2022/10/15 05:16:21;;;;;;;11.63;5.87;;;14.20;99.90;;;;;;4989386;28;20495;-73
2022/10/15 05:18:49;;;;;;;6.93;5.03;;;14.20;99.90;;;;;;4974429;28;20429;-73
2022/10/15 05:21:16;;;;;;;7.80;5.93;;;14.10;99.90;;;;;;4974546;28;20513;-74
2022/10/15 05:23:43;;;;;;;9.20;5.67;;;14.10;99.90;;;;;;4973723;28;20435;-73
2022/10/15 05:26:11;;;;;;;7.17;4.80;;;14.10;99.90;;;;;;4977916;28;20420;-72
2022/10/15 05:28:37;;;;;;;6.90;4.73;;;14.10;99.90;;;;;;4993712;28;20428;-72
2022/10/15 05:31:14;;;;;;;7.20;4.80;;;14.10;99.90;;;;;;4993747;28;20412;-74
2022/10/15 05:33:39;;;;;;;7.20;5.07;;;14.10;99.90;;;;;;4993695;28;20211;-73
2022/10/15 05:36:20;;;;;;;8.00;4.97;;;14.00;99.90;;;;;;4989821;28;20421;-73
2022/10/15 05:38:48;;;;;;;9.40;6.77;;;14.00;99.90;;;;;;4974167;28;20189;-73
2022/10/15 05:41:14;;;;;;;10.40;5.97;;;14.00;99.90;;;;;;4974317;28;20750;-72
2022/10/15 05:43:40;;;;;;;7.40;5.50;;;13.90;99.90;;;;;;4974203;28;20419;-73
2022/10/15 05:46:06;;;;;;;9.30;5.80;;;13.80;99.90;;;;;;4977041;28;20997;-76
2022/10/15 05:48:32;;;;;;;8.83;6.07;;;13.70;99.90;;;;;;4993235;28;20440;-71
2022/10/15 05:51:07;;;;;;;8.50;5.70;;;13.70;99.90;;;;;;4993445;28;20454;-74
2022/10/15 05:53:33;;;;;;;12.03;7.70;;;13.60;99.90;;;;;;4993584;28;20406;-73
2022/10/15 05:55:59;;;;;;;10.63;6.97;;;13.50;99.90;;;;;;4989460;28;20468;-75
2022/10/15 05:58:25;;;;;;;15.67;6.90;;;13.40;99.90;;;;;;4974602;28;20440;-74
2022/10/15 06:00:58;;;;;;;8.57;6.57;;;13.30;99.90;;;;;;4976024;28;20452;-74
2022/10/15 06:03:24;;;;;;;10.00;7.33;;;13.20;99.90;;;;;;4975614;28;20409;-74
2022/10/15 06:05:50;;;;;;;8.30;6.20;;;13.10;99.90;;;;;;4990071;28;20475;-74
2022/10/15 06:08:16;;;;;;;8.97;5.90;;;13.00;99.90;;;;;;4977999;28;20443;-72
2022/10/15 06:10:41;;;;;;;8.17;5.10;;;12.90;99.90;;;;;;4993125;28;20227;-73
2022/10/15 06:13:07;;;;;;;7.50;5.50;;;12.90;99.90;;;;;;4993061;28;20415;-74
2022/10/15 06:15:33;;;;;;;11.20;6.83;;;12.80;99.90;;;;;;4992804;28;20200;-72
2022/10/15 06:17:59;;;;;;;7.40;5.80;;;12.80;99.90;;;;;;4992873;28;20482;-72
2022/10/15 06:20:25;;;;;;;9.40;6.73;;;12.80;99.90;;;;;;4985153;28;20228;-73
2022/10/15 06:22:50;;;;;;;7.67;5.33;;;12.80;99.90;;;;;;4973604;28;20400;-72
2022/10/15 06:25:16;;;;;;;9.30;6.33;;;12.90;99.90;;;;;;4973210;28;20440;-72
2022/10/15 06:27:41;;;;;;;7.30;5.30;;;12.90;99.90;;;;;;4988286;28;20204;-72
2022/10/15 06:30:08;;;;;;;23.67;17.60;;;13.00;99.90;;;;;;4973384;28;20180;-71
2022/10/15 06:32:33;;;;;;;11.13;8.30;;;13.00;99.90;;;;;;4984110;28;20173;-72
2022/10/15 06:34:59;;;;;;;14.60;6.10;;;13.10;99.90;;;;;;4991788;28;20894;-72
2022/10/15 06:37:25;;;;;;;7.10;5.50;;;13.10;99.90;;;;;;5007707;28;20193;-71
2022/10/15 06:39:50;;;;;;;6.00;4.60;;;13.20;99.90;;;;;;4992556;28;20295;-73
2022/10/15 06:42:16;;;;;;;7.70;5.57;;;13.30;99.90;;;;;;4994375;28;20173;-75
2022/10/15 06:44:41;;;;;;;6.00;5.07;;;13.50;99.90;;;;;;4983816;28;20181;-75
2022/10/15 06:47:07;;;;;;;5.90;5.10;;;13.60;99.90;;;;;;4974214;28;20181;-74
2022/10/15 06:49:32;;;;;;;7.60;5.17;;;13.70;99.90;;;;;;4989029;28;20197;-74
2022/10/15 06:51:58;;;;;;;5.73;4.50;;;13.80;99.90;;;;;;4972877;28;20181;-72
2022/10/15 06:54:24;;;;;;;6.67;5.00;;;13.90;99.90;;;;;;4972976;28;20893;-72
2022/10/15 06:56:50;;;;;;;7.13;5.00;;;14.00;99.90;;;;;;4984902;28;20455;-72
2022/10/15 06:59:15;;;;;;;5.20;4.50;;;14.10;99.90;;;;;;4992496;28;20228;-75
2022/10/15 07:01:41;;;;;;;9.03;6.50;;;14.20;99.90;;;;;;5000063;28;20172;-74
2022/10/15 07:04:07;;;;;;;6.70;5.23;;;14.30;99.90;;;;;;4992531;28;20623;-73
2022/10/15 07:06:35;;;;;;;4.30;3.90;;;14.50;99.90;;;;;;4992400;28;20528;-73
2022/10/15 07:09:02;;;;;;;9.90;4.77;;;14.60;99.90;;;;;;4980538;28;20217;-74
2022/10/15 07:11:27;;;;;;;6.23;4.57;;;14.80;99.90;;;;;;4973106;28;20894;-73
2022/10/15 07:13:53;;;;;;;6.63;4.03;;;14.90;99.90;;;;;;4972975;28;20552;-73
2022/10/15 07:16:19;;;;;;;12.60;4.10;;;15.00;99.90;;;;;;4972704;28;20181;-74
2022/10/15 07:18:47;;;;;;;4.00;3.40;;;15.10;99.90;;;;;;4972799;28;20436;-73
2022/10/15 07:21:12;;;;;;;3.90;2.83;;;15.00;99.90;;;;;;4983857;28;20187;-73
2022/10/15 07:23:38;;;;;;;4.23;3.43;;;15.10;99.90;;;;;;4992928;28;20416;-73
2022/10/15 07:26:04;;;;;;;4.70;3.77;;;15.20;99.90;;;;;;4992011;28;20169;-73
2022/10/15 07:28:30;;;;;;;5.40;3.23;;;15.20;99.90;;;;;;4992398;28;20196;-72
2022/10/15 07:31:03;;;;;;;10.13;6.83;;;15.30;99.90;;;;;;4992169;28;20917;-72
2022/10/15 07:33:28;;;;;;;3.40;2.80;;;15.50;99.90;;;;;;4981549;28;20228;-72
2022/10/15 07:35:54;;;;;;;3.00;2.67;;;15.60;99.90;;;;;;4983811;28;20419;-72
2022/10/15 07:38:20;;;;;;;3.23;2.50;;;15.80;99.90;;;;;;4992114;28;20221;-72
2022/10/15 07:40:45;;;;;;;2.90;2.60;;;15.90;99.90;;;;;;4992143;28;20748;-72
2022/10/15 07:43:11;;;;;;;3.43;3.00;;;16.00;99.90;;;;;;4992168;28;20700;-72
2022/10/15 07:45:37;;;;;;;2.83;2.20;;;16.10;99.90;;;;;;4991201;28;20192;-72
2022/10/15 07:48:02;;;;;;;3.50;2.37;;;16.30;99.90;;;;;;4994299;28;20203;-72
2022/10/15 07:50:28;;;;;;;3.17;2.40;;;16.40;99.90;;;;;;4994333;28;20658;-72
2022/10/15 07:52:53;;;;;;;3.00;2.60;;;16.50;99.90;;;;;;4995600;28;20232;-74
2022/10/15 07:55:19;;;;;;;62.33;41.13;;;16.60;99.90;;;;;;4997252;28;20196;-75
2022/10/15 07:57:44;;;;;;;7.33;5.03;;;16.60;99.90;;;;;;4986153;28;20192;-74
2022/10/15 08:00:11;;;;;;;2.67;1.97;;;16.60;99.90;;;;;;4976117;28;20197;-74
2022/10/15 08:02:36;;;;;;;2.30;1.70;;;16.70;99.90;;;;;;4975983;28;20268;-74
2022/10/15 08:05:02;;;;;;;3.30;2.23;;;16.60;99.90;;;;;;4975705;28;20830;-73
2022/10/15 08:07:27;;;;;;;2.23;2.03;;;16.60;99.90;;;;;;4975952;28;20186;-73
2022/10/15 08:09:53;;;;;;;5.27;1.70;;;16.50;99.90;;;;;;4987921;28;20536;-72
2022/10/15 08:12:18;;;;;;;2.97;1.70;;;16.50;99.90;;;;;;4993969;28;20176;-74
2022/10/15 08:14:45;;;;;;;2.13;1.60;;;16.50;99.90;;;;;;4995044;28;20185;-73
2022/10/15 08:17:11;;;;;;;3.17;1.73;;;16.50;99.90;;;;;;4995132;28;20185;-73
2022/10/15 08:19:36;;;;;;;2.67;1.93;;;16.50;99.90;;;;;;4995180;28;20996;-73
2022/10/15 08:22:02;;;;;;;4.53;1.80;;;16.50;99.90;;;;;;4981137;28;20612;-73
2022/10/15 08:24:29;;;;;;;2.50;1.80;;;16.80;99.90;;;;;;4974078;28;20170;-73
2022/10/15 08:26:56;;;;;;;2.73;1.90;;;17.00;99.90;;;;;;4976782;28;20405;-75
2022/10/15 08:29:22;;;;;;;2.13;1.57;;;17.10;99.90;;;;;;5009392;28;20417;-74
2022/10/15 08:31:48;;;;;;;3.23;1.60;;;17.00;99.90;;;;;;4982250;28;20443;-73
2022/10/15 08:34:13;;;;;;;3.33;2.10;;;16.90;99.90;;;;;;4995632;28;20176;-74
2022/10/15 08:36:39;;;;;;;1.80;1.57;;;16.80;99.90;;;;;;4995516;28;20404;-74
2022/10/15 08:39:06;;;;;;;4.00;1.80;;;17.00;99.90;;;;;;4994665;28;20691;-72
2022/10/15 08:41:49;;;;;;;2.43;1.70;;;17.20;99.90;;;;;;4993450;28;20285;-73
2022/10/15 08:44:28;;;;;;;2.83;2.17;;;17.20;99.90;;;;;;4994285;28;20396;-72
2022/10/15 08:47:09;;;;;;;2.90;1.87;;;17.20;99.90;;;;;;4975361;28;20409;-72
2022/10/15 08:49:43;;;;;;;2.07;1.50;;;17.20;99.90;;;;;;4975067;28;20511;-72
2022/10/15 08:52:28;;;;;;;1.90;1.30;;;17.20;99.90;;;;;;4980693;28;20409;-74
2022/10/15 08:54:55;;;;;;;2.00;1.57;;;17.20;99.90;;;;;;4978805;28;20479;-72
2022/10/15 08:57:47;;;;;;;2.13;1.50;;;17.30;99.90;;;;;;4978784;28;20465;-74
2022/10/15 09:00:28;;;;;;;2.47;1.40;;;17.50;99.90;;;;;;5011897;28;20551;-75
2022/10/15 09:03:04;;;;;;;2.53;1.60;;;17.80;99.90;;;;;;4980070;28;20405;-74
2022/10/15 09:06:05;;;;;;;1.20;1.00;;;18.00;99.90;;;;;;4977612;28;20466;-72
2022/10/15 09:09:00;;;;;;;1.40;1.10;;;18.20;99.90;;;;;;4998352;28;20578;-72
2022/10/15 09:11:56;;;;;;;1.70;1.30;;;18.20;99.90;;;;;;4979833;28;20439;-72
2022/10/15 09:14:27;;;;;;;1.97;1.20;;;18.30;99.90;;;;;;4976697;28;20412;-74
2022/10/15 09:16:53;;;;;;;1.40;0.90;;;18.50;99.90;;;;;;5008557;28;20416;-74
2022/10/15 09:19:22;;;;;;;1.50;1.20;;;18.80;99.90;;;;;;4974606;28;20872;-73
2022/10/15 09:21:49;;;;;;;2.27;1.10;;;19.00;99.90;;;;;;4987692;28;20173;-73
2022/10/15 09:24:22;;;;;;;1.30;0.97;;;19.30;99.90;;;;;;4992321;28;20419;-72
2022/10/15 09:27:09;;;;;;;1.40;1.30;;;19.40;99.90;;;;;;4993863;28;20424;-72
2022/10/15 09:29:54;;;;;;;1.20;0.80;;;19.50;99.90;;;;;;4992305;28;20458;-71
2022/10/15 09:32:30;;;;;;;1.60;1.10;;;19.30;99.90;;;;;;4993719;28;20431;-72
2022/10/15 09:35:11;;;;;;;1.30;0.90;;;19.40;99.90;;;;;;4994835;28;20971;-74
2022/10/15 09:37:54;;;;;;;1.70;1.37;;;19.50;99.90;;;;;;4995409;28;20797;-75
2022/10/15 09:40:42;;;;;;;2.10;1.13;;;19.80;99.90;;;;;;4976865;28;20459;-74
2022/10/15 09:43:10;;;;;;;1.37;1.07;;;20.30;99.90;;;;;;4977335;28;20417;-74
2022/10/15 09:45:36;;;;;;;1.57;0.97;;;20.30;99.90;;;;;;4990648;28;20413;-71
2022/10/15 09:48:15;;;;;;;1.90;1.20;;;20.10;99.90;;;;;;4978061;28;20446;-71
2022/10/15 09:50:51;;;;;;;1.70;1.30;;;20.30;99.90;;;;;;4997055;28;20403;-75
2022/10/15 09:53:31;;;;;;;1.37;1.10;;;20.40;99.90;;;;;;4996426;28;20507;-74
2022/10/15 09:56:07;;;;;;;1.20;0.83;;;20.50;99.90;;;;;;4992728;28;20844;-72
2022/10/15 09:58:40;;;;;;;1.33;1.03;;;20.40;99.90;;;;;;4985074;28;20495;-72
2022/10/15 10:01:15;;;;;;;1.70;1.10;;;20.30;99.90;;;;;;4973822;28;20807;-73
2022/10/15 10:03:41;;;;;;;2.83;1.30;;;20.10;99.90;;;;;;4973894;28;20405;-73
2022/10/15 10:06:08;;;;;;;1.40;1.00;;;20.00;99.90;;;;;;4973530;28;20459;-73
2022/10/15 10:08:56;;;;;;;1.20;0.93;;;20.00;99.90;;;;;;4972082;28;20193;-72
2022/10/15 10:11:24;;;;;;;1.87;1.10;;;20.70;99.90;;;;;;4986727;28;20412;-74
2022/10/15 10:13:53;;;;;;;1.40;1.10;;;21.30;99.90;;;;;;4993585;28;20446;-75
2022/10/15 10:16:21;;;;;;;1.43;0.90;;;21.30;99.90;;;;;;4992784;28;20451;-73
2022/10/15 10:19:11;;;;;;;1.70;1.00;;;21.20;99.90;;;;;;4992511;28;20447;-73
2022/10/15 10:21:40;;;;;;;3.03;1.10;;;21.50;99.90;;;;;;4994053;28;20419;-71
2022/10/15 10:24:24;;;;;;;1.20;0.90;;;21.70;99.90;;;;;;4991571;28;20412;-72
2022/10/15 10:26:49;;;;;;;1.30;0.93;;;21.60;99.90;;;;;;4992827;28;20776;-71
2022/10/15 10:29:20;;;;;;;1.30;1.10;;;21.10;99.90;;;;;;4993016;28;20408;-74
2022/10/15 10:31:49;;;;;;;1.70;1.40;;;20.60;99.90;;;;;;4994603;28;20169;-75
2022/10/15 10:34:20;;;;;;;1.63;1.53;;;20.20;99.90;;;;;;4991682;28;20423;-72
2022/10/15 10:36:51;;;;;;;2.80;1.23;;;20.00;99.90;;;;;;4973341;28;20432;-71
2022/10/15 10:39:31;;;;;;;1.63;1.30;;;19.80;99.90;;;;;;4972997;28;20975;-72
2022/10/15 10:41:59;;;;;;;1.70;1.23;;;19.50;99.90;;;;;;4973107;28;20409;-74
2022/10/15 10:44:39;;;;;;;2.43;1.50;;;19.30;99.90;;;;;;4972965;28;20424;-72
2022/10/15 10:47:25;;;;;;;7.83;5.70;;;19.10;99.90;;;;;;4985321;28;20420;-74
2022/10/15 10:49:56;;;;;;;1.30;0.90;;;19.00;99.90;;;;;;4994884;28;20841;-74
2022/10/15 10:52:35;;;;;;;1.90;1.20;;;19.00;99.90;;;;;;4994562;28;20423;-73
2022/10/15 10:55:05;;;;;;;1.43;1.07;;;19.00;99.90;;;;;;4992327;28;20490;-72
2022/10/15 10:57:46;;;;;;;5.43;1.20;;;19.10;99.90;;;;;;4984885;28;20445;-73
2022/10/15 11:00:19;;;;;;;3.20;2.23;;;19.40;99.90;;;;;;4973147;28;20477;-73
2022/10/15 11:02:44;;;;;;;1.10;0.70;;;19.50;99.90;;;;;;4973128;28;20789;-73
2022/10/15 11:05:11;;;;;;;1.10;0.60;;;19.70;99.90;;;;;;4972788;28;20393;-72
2022/10/15 11:07:58;;;;;;;1.10;0.70;;;19.80;99.90;;;;;;4994853;28;20208;-72
2022/10/15 11:10:30;;;;;;;1.10;0.60;;;19.90;99.90;;;;;;4992437;28;20458;-72
2022/10/15 11:13:25;;;;;;;1.10;0.70;;;19.90;99.90;;;;;;4992401;28;20404;-72
2022/10/15 11:16:02;;;;;;;1.10;0.70;;;20.10;99.90;;;;;;4993170;28;20408;-73
2022/10/15 11:18:34;;;;;;;1.17;0.67;;;20.10;99.90;;;;;;4975847;28;20494;-73
2022/10/15 11:21:12;;;;;;;1.07;0.60;;;20.10;99.90;;;;;;5007267;28;20464;-73
2022/10/15 11:23:43;;;;;;;1.70;0.70;;;20.20;99.90;;;;;;4978178;28;20436;-74
2022/10/15 11:26:39;;;;;;;1.00;0.60;;;20.20;99.90;;;;;;4976687;28;20459;-72
2022/10/15 11:29:15;;;;;;;1.10;0.60;;;20.20;99.90;;;;;;4976503;28;20436;-74
2022/10/15 11:31:56;;;;;;;1.00;0.60;;;20.30;99.90;;;;;;4976542;28;20412;-72
2022/10/15 11:34:29;;;;;;;1.00;0.60;;;20.30;99.90;;;;;;4976379;28;20412;-71
2022/10/15 11:37:27;;;;;;;1.30;1.03;;;20.20;99.90;;;;;;4976864;28;20424;-71
2022/10/15 11:40:14;;;;;;;2.50;0.80;;;20.30;99.90;;;;;;4976341;28;20511;-71
2022/10/15 11:43:00;;;;;;;1.00;0.60;;;20.20;99.90;;;;;;4974773;28;20416;-72
2022/10/15 11:45:55;;;;;;;1.40;0.60;;;20.20;99.90;;;;;;4975914;28;20451;-73
2022/10/15 11:48:44;;;;;;;1.83;0.70;;;20.20;99.90;;;;;;4993527;28;20450;-70
2022/10/15 11:51:15;;;;;;;2.03;0.73;;;20.30;99.90;;;;;;4995706;28;20448;-73
2022/10/15 11:54:18;;;;;;;1.30;0.70;;;20.80;99.90;;;;;;4995504;28;20536;-72
2022/10/15 11:56:47;;;;;;;1.00;0.60;;;21.50;99.90;;;;;;4995554;28;20498;-72
2022/10/15 11:59:34;;;;;;;1.00;0.60;;;21.90;99.90;;;;;;4987390;28;20464;-74
2022/10/15 12:02:23;;;;;;;1.00;0.60;;;22.40;99.90;;;;;;4975974;28;20456;-73
2022/10/15 12:05:03;;;;;;;1.00;0.60;;;22.60;99.90;;;;;;4990596;28;20479;-73
2022/10/15 12:07:42;;;;;;;1.10;0.60;;;22.70;99.90;;;;;;4975758;28;20441;-73
2022/10/15 12:10:16;;;;;;;1.00;0.60;;;22.80;99.90;;;;;;4975756;28;20779;-71
2022/10/15 12:13:21;;;;;;;1.00;0.53;;;22.70;99.90;;;;;;4991409;28;20449;-73
2022/10/15 12:16:29;;;;;;;1.00;0.60;;;22.50;99.90;;;;;;4993653;28;20478;-72
2022/10/15 12:19:16;;;;;;;1.00;0.60;;;22.40;99.90;;;;;;5015160;28;20428;-72
2022/10/15 12:21:53;;;;;;;1.10;0.60;;;22.00;99.90;;;;;;4995151;28;20439;-72
2022/10/15 12:24:40;;;;;;;1.00;0.60;;;21.80;99.90;;;;;;4981568;28;20421;-72
2022/10/15 12:27:17;;;;;;;1.77;0.90;;;21.70;99.90;;;;;;4975539;28;20405;-73
2022/10/15 12:29:45;;;;;;;1.27;0.77;;;21.60;99.90;;;;;;5006870;28;20428;-73
2022/10/15 12:32:22;;;;;;;2.17;0.97;;;21.70;99.90;;;;;;4975194;28;20416;-73
2022/10/15 12:34:54;;;;;;;1.00;0.50;;;21.70;99.90;;;;;;4975278;28;20419;-71
2022/10/15 12:37:23;;;;;;;1.20;0.70;;;21.60;99.90;;;;;;4994885;28;20478;-71
2022/10/15 12:40:17;;;;;;;4.70;0.60;;;21.40;99.90;;;;;;4994665;28;20455;-74
2022/10/15 12:42:42;;;;;;;1.40;0.57;;;21.30;99.90;;;;;;4999306;28;20454;-73
2022/10/15 12:45:22;;;;;;;1.20;0.67;;;21.20;99.90;;;;;;4994525;28;20444;-73
2022/10/15 12:48:04;;;;;;;1.10;0.70;;;21.10;99.90;;;;;;4989375;28;20618;-73
2022/10/15 12:50:32;;;;;;;1.00;0.60;;;21.10;99.90;;;;;;4975206;28;20439;-72
2022/10/15 12:53:05;;;;;;;1.10;0.70;;;21.60;99.90;;;;;;4975009;28;20424;-72
2022/10/15 12:55:36;;;;;;;1.10;0.50;;;22.00;99.90;;;;;;4973644;28;20424;-73
2022/10/15 12:58:20;;;;;;;1.10;0.70;;;22.50;99.90;;;;;;4975031;28;20441;-73
2022/10/15 13:00:46;;;;;;;1.40;0.80;;;22.90;99.90;;;;;;4988016;28;21015;-73
2022/10/15 13:03:17;;;;;;;1.00;0.60;;;23.30;99.90;;;;;;4994014;28;20427;-72
2022/10/15 13:05:43;;;;;;;1.00;0.60;;;23.40;99.90;;;;;;4994006;28;20169;-74
2022/10/15 13:08:21;;;;;;;1.07;0.70;;;23.20;99.90;;;;;;4984400;28;20452;-74